createdAt,value
2018-06-14T00:00:20.238Z,0.00
2018-06-14T00:01:20.143Z,0.00
2018-06-14T00:02:20.150Z,0.00
2018-06-14T00:03:20.095Z,0.00
2018-06-14T00:04:20.166Z,0.00
2018-06-14T00:05:20.049Z,0.00
2018-06-14T00:06:20.075Z,0.00
2018-06-14T00:07:20.000Z,0.00
2018-06-14T00:08:20.096Z,0.00
2018-06-14T00:09:19.956Z,0.00
2018-06-14T00:10:20.003Z,0.00
2018-06-14T00:11:19.907Z,0.00
2018-06-14T00:12:19.935Z,0.00
2018-06-14T00:13:19.859Z,0.00
2018-06-14T00:14:19.938Z,0.00
2018-06-14T00:15:19.813Z,0.00
2018-06-14T00:16:19.840Z,0.00
2018-06-14T00:17:19.784Z,0.00
2018-06-14T00:18:19.856Z,0.00
2018-06-14T00:19:19.719Z,0.00
2018-06-14T00:20:19.768Z,0.00
2018-06-14T00:21:19.675Z,0.00
2018-06-14T00:22:19.677Z,0.00
2018-06-14T00:23:19.628Z,0.00
2018-06-14T00:24:19.690Z,0.00
2018-06-14T00:25:19.578Z,0.00
2018-06-14T00:26:19.605Z,0.00
2018-06-14T00:27:19.531Z,0.00
2018-06-14T00:28:19.617Z,0.00
2018-06-14T00:29:19.485Z,0.00
2018-06-14T00:30:19.528Z,0.00
2018-06-14T00:31:19.435Z,0.00
2018-06-14T00:32:19.440Z,0.00
2018-06-14T00:33:19.389Z,0.00
2018-06-14T00:34:19.457Z,0.00
2018-06-14T00:35:19.350Z,0.00
2018-06-14T00:36:19.365Z,0.00
2018-06-14T00:37:19.293Z,0.00
2018-06-14T00:38:19.380Z,0.00
2018-06-14T00:39:19.246Z,0.00
2018-06-14T00:40:19.294Z,0.00
2018-06-14T00:41:19.201Z,0.00
2018-06-14T00:42:19.203Z,0.00
2018-06-14T00:43:19.152Z,0.00
2018-06-14T00:44:19.217Z,0.00
2018-06-14T00:45:19.107Z,0.00
2018-06-14T00:46:19.129Z,0.00
2018-06-14T00:47:19.056Z,0.00
2018-06-14T00:48:19.143Z,0.00
2018-06-14T00:49:19.010Z,0.00
2018-06-14T00:50:19.056Z,0.00
2018-06-14T00:51:18.965Z,0.00
2018-06-14T00:52:18.965Z,0.00
2018-06-14T00:53:18.914Z,0.00
2018-06-14T00:54:18.981Z,0.00
2018-06-14T00:55:18.866Z,0.00
2018-06-14T00:56:18.894Z,0.00
2018-06-14T00:57:18.820Z,0.00
2018-06-14T00:58:18.910Z,0.00
2018-06-14T00:59:18.773Z,0.00
2018-06-14T01:00:18.818Z,0.00
2018-06-14T01:01:18.724Z,0.00
2018-06-14T01:02:18.734Z,0.00
2018-06-14T01:03:18.676Z,0.00
2018-06-14T01:04:18.745Z,0.00
2018-06-14T01:05:18.631Z,0.00
2018-06-14T01:06:18.656Z,0.00
2018-06-14T01:07:18.580Z,0.00
2018-06-14T01:08:18.671Z,0.00
2018-06-14T01:09:18.536Z,0.00
2018-06-14T01:10:18.582Z,0.00
2018-06-14T01:11:18.486Z,0.00
2018-06-14T01:12:18.493Z,0.00
2018-06-14T01:13:18.438Z,0.00
2018-06-14T01:14:18.508Z,0.00
2018-06-14T01:15:18.392Z,0.00
2018-06-14T01:16:18.420Z,0.00
2018-06-14T01:17:18.344Z,0.00
2018-06-14T01:18:18.434Z,0.00
2018-06-14T01:19:18.302Z,0.00
2018-06-14T01:20:18.347Z,0.00
2018-06-14T01:21:18.248Z,0.00
2018-06-14T01:22:18.259Z,0.00
2018-06-14T01:23:18.201Z,0.00
2018-06-14T01:24:18.272Z,0.00
2018-06-14T01:25:18.164Z,0.00
2018-06-14T01:26:18.183Z,0.00
2018-06-14T01:27:18.104Z,0.00
2018-06-14T01:28:18.094Z,0.00
2018-06-14T01:29:18.057Z,0.00
2018-06-14T01:30:18.109Z,0.00
2018-06-14T01:31:18.011Z,0.00
2018-06-14T01:32:18.035Z,0.00
2018-06-14T01:33:17.962Z,0.00
2018-06-14T01:34:18.056Z,0.00
2018-06-14T01:35:17.915Z,0.00
2018-06-14T01:36:17.947Z,0.00
2018-06-14T01:37:17.869Z,0.00
2018-06-14T01:38:17.862Z,0.00
2018-06-14T01:39:17.817Z,0.00
2018-06-14T01:40:17.873Z,0.00
2018-06-14T01:41:17.770Z,0.00
2018-06-14T01:42:17.784Z,0.00
2018-06-14T01:43:17.721Z,0.00
2018-06-14T01:44:17.799Z,0.00
2018-06-14T01:45:17.678Z,0.00
2018-06-14T01:46:17.710Z,0.00
2018-06-14T01:47:17.626Z,0.00
2018-06-14T01:48:17.626Z,0.00
2018-06-14T01:49:17.580Z,0.00
2018-06-14T01:50:17.637Z,0.00
2018-06-14T01:51:17.533Z,0.00
2018-06-14T01:52:17.549Z,0.00
2018-06-14T01:53:17.483Z,0.00
2018-06-14T01:54:17.562Z,0.00
2018-06-14T01:55:17.433Z,0.00
2018-06-14T01:56:17.474Z,0.00
2018-06-14T01:57:17.386Z,0.00
2018-06-14T01:58:17.387Z,0.00
2018-06-14T01:59:17.340Z,0.00
2018-06-14T02:00:17.400Z,0.00
2018-06-14T02:01:17.297Z,0.00
2018-06-14T02:02:17.314Z,0.00
2018-06-14T02:03:17.242Z,0.00
2018-06-14T02:04:17.324Z,0.00
2018-06-14T02:05:17.199Z,0.00
2018-06-14T02:06:17.243Z,0.00
2018-06-14T02:07:17.147Z,0.00
2018-06-14T02:08:17.152Z,0.00
2018-06-14T02:09:17.099Z,0.00
2018-06-14T02:10:17.166Z,0.00
2018-06-14T02:11:17.051Z,0.00
2018-06-14T02:12:17.077Z,0.00
2018-06-14T02:13:17.017Z,0.00
2018-06-14T02:14:17.091Z,0.00
2018-06-14T02:15:16.965Z,0.00
2018-06-14T02:16:17.000Z,0.00
2018-06-14T02:17:16.908Z,0.00
2018-06-14T02:18:16.916Z,0.00
2018-06-14T02:19:16.860Z,0.00
2018-06-14T02:20:16.926Z,0.00
2018-06-14T02:21:16.814Z,0.00
2018-06-14T02:22:16.838Z,0.00
2018-06-14T02:23:16.766Z,0.00
2018-06-14T02:24:16.852Z,0.00
2018-06-14T02:25:16.717Z,0.00
2018-06-14T02:26:16.770Z,0.00
2018-06-14T02:27:16.672Z,0.00
2018-06-14T02:28:16.679Z,0.00
2018-06-14T02:29:16.620Z,0.00
2018-06-14T02:30:16.691Z,0.00
2018-06-14T02:31:16.573Z,0.00
2018-06-14T02:32:16.603Z,0.00
2018-06-14T02:33:16.525Z,0.00
2018-06-14T02:34:16.515Z,0.00
2018-06-14T02:35:16.477Z,0.00
2018-06-14T02:36:16.529Z,0.00
2018-06-14T02:37:16.430Z,0.00
2018-06-14T02:38:16.440Z,0.00
2018-06-14T02:39:16.381Z,0.00
2018-06-14T02:40:16.458Z,0.00
2018-06-14T02:41:16.332Z,0.00
2018-06-14T02:42:16.369Z,0.00
2018-06-14T02:43:16.285Z,0.00
2018-06-14T02:44:16.276Z,0.00
2018-06-14T02:45:16.240Z,0.00
2018-06-14T02:46:16.292Z,0.00
2018-06-14T02:47:16.183Z,4.00
2018-06-14T02:48:16.206Z,4.00
2018-06-14T02:49:16.141Z,0.00
2018-06-14T02:50:16.220Z,0.00
2018-06-14T02:51:16.094Z,0.00
2018-06-14T02:52:16.132Z,4.00
2018-06-14T02:53:16.046Z,0.00
2018-06-14T02:54:16.041Z,4.00
2018-06-14T02:55:15.996Z,4.00
2018-06-14T02:56:16.055Z,4.00
2018-06-14T02:57:15.950Z,4.00
2018-06-14T02:58:15.969Z,4.00
2018-06-14T02:59:15.899Z,8.00
2018-06-14T03:00:15.985Z,4.00
2018-06-14T03:01:15.853Z,4.00
2018-06-14T03:02:15.893Z,8.00
2018-06-14T03:03:15.804Z,8.00
2018-06-14T03:04:15.805Z,8.00
2018-06-14T03:05:15.756Z,12.00
2018-06-14T03:06:15.818Z,12.00
2018-06-14T03:07:15.709Z,12.00
2018-06-14T03:08:15.730Z,16.00
2018-06-14T03:09:15.664Z,16.00
2018-06-14T03:10:15.749Z,16.00
2018-06-14T03:11:15.612Z,20.00
2018-06-14T03:12:15.654Z,20.00
2018-06-14T03:13:15.564Z,24.00
2018-06-14T03:14:15.568Z,28.00
2018-06-14T03:15:15.521Z,28.00
2018-06-14T03:16:15.582Z,32.00
2018-06-14T03:17:15.468Z,32.00
2018-06-14T03:18:15.496Z,40.00
2018-06-14T03:19:15.422Z,40.00
2018-06-14T03:20:15.509Z,44.00
2018-06-14T03:21:15.373Z,44.00
2018-06-14T03:22:15.419Z,52.00
2018-06-14T03:23:15.323Z,56.00
2018-06-14T03:24:15.333Z,56.00
2018-06-14T03:25:15.284Z,64.00
2018-06-14T03:26:15.349Z,68.00
2018-06-14T03:27:15.227Z,68.00
2018-06-14T03:28:15.258Z,76.00
2018-06-14T03:29:15.178Z,80.00
2018-06-14T03:30:15.272Z,84.00
2018-06-14T03:31:15.132Z,88.00
2018-06-14T03:32:15.185Z,92.00
2018-06-14T03:33:15.084Z,100.00
2018-06-14T03:34:15.095Z,108.00
2018-06-14T03:35:15.035Z,112.00
2018-06-14T03:36:15.111Z,120.00
2018-06-14T03:37:14.987Z,124.00
2018-06-14T03:38:15.020Z,128.00
2018-06-14T03:39:14.943Z,136.00
2018-06-14T03:40:14.931Z,140.00
2018-06-14T03:41:14.887Z,148.00
2018-06-14T03:42:14.956Z,156.00
2018-06-14T03:43:14.841Z,160.00
2018-06-14T03:44:14.862Z,168.00
2018-06-14T03:45:14.793Z,172.00
2018-06-14T03:46:14.873Z,184.00
2018-06-14T03:47:14.747Z,188.00
2018-06-14T03:48:14.786Z,196.00
2018-06-14T03:49:14.695Z,204.00
2018-06-14T03:50:14.696Z,212.00
2018-06-14T03:51:14.646Z,220.00
2018-06-14T03:52:14.709Z,232.00
2018-06-14T03:53:14.598Z,236.00
2018-06-14T03:54:14.622Z,248.00
2018-06-14T03:55:14.549Z,252.00
2018-06-14T03:56:14.635Z,264.00
2018-06-14T03:57:14.502Z,276.00
2018-06-14T03:58:14.547Z,284.00
2018-06-14T03:59:14.454Z,292.00
2018-06-14T04:00:14.459Z,304.00
2018-06-14T04:01:14.404Z,312.00
2018-06-14T04:02:14.473Z,320.00
2018-06-14T04:03:14.355Z,328.00
2018-06-14T04:04:14.387Z,332.00
2018-06-14T04:05:14.308Z,340.00
2018-06-14T04:06:14.301Z,344.00
2018-06-14T04:07:14.258Z,352.00
2018-06-14T04:08:14.313Z,360.00
2018-06-14T04:09:14.211Z,368.00
2018-06-14T04:10:14.222Z,380.00
2018-06-14T04:11:14.164Z,388.00
2018-06-14T04:12:14.236Z,400.00
2018-06-14T04:13:14.115Z,408.00
2018-06-14T04:14:14.149Z,416.00
2018-06-14T04:15:14.075Z,424.00
2018-06-14T04:16:14.060Z,428.00
2018-06-14T04:17:14.018Z,428.00
2018-06-14T04:18:14.073Z,428.00
2018-06-14T04:19:13.971Z,432.00
2018-06-14T04:20:13.989Z,436.00
2018-06-14T04:21:13.922Z,436.00
2018-06-14T04:22:14.002Z,436.00
2018-06-14T04:23:13.873Z,436.00
2018-06-14T04:24:13.914Z,440.00
2018-06-14T04:25:13.826Z,444.00
2018-06-14T04:26:13.824Z,448.00
2018-06-14T04:27:13.779Z,456.00
2018-06-14T04:28:13.839Z,464.00
2018-06-14T04:29:13.729Z,468.00
2018-06-14T04:30:13.753Z,468.00
2018-06-14T04:31:13.682Z,468.00
2018-06-14T04:32:13.765Z,468.00
2018-06-14T04:33:13.632Z,476.00
2018-06-14T04:34:13.677Z,484.00
2018-06-14T04:35:13.585Z,492.00
2018-06-14T04:36:13.588Z,496.00
2018-06-14T04:37:13.536Z,496.00
2018-06-14T04:38:13.600Z,500.00
2018-06-14T04:39:13.487Z,512.00
2018-06-14T04:40:13.514Z,516.00
2018-06-14T04:41:13.440Z,528.00
2018-06-14T04:42:13.527Z,536.00
2018-06-14T04:43:13.393Z,540.00
2018-06-14T04:44:13.439Z,552.00
2018-06-14T04:45:13.357Z,572.00
2018-06-14T04:46:13.351Z,588.00
2018-06-14T04:47:13.299Z,600.00
2018-06-14T04:48:13.365Z,612.00
2018-06-14T04:49:13.253Z,620.00
2018-06-14T04:50:13.280Z,632.00
2018-06-14T04:51:13.204Z,632.00
2018-06-14T04:52:13.189Z,636.00
2018-06-14T04:53:13.155Z,640.00
2018-06-14T04:54:13.205Z,652.00
2018-06-14T04:55:13.104Z,660.00
2018-06-14T04:56:13.117Z,664.00
2018-06-14T04:57:13.056Z,672.00
2018-06-14T04:58:13.130Z,680.00
2018-06-14T04:59:13.016Z,684.00
2018-06-14T05:00:13.045Z,688.00
2018-06-14T05:01:12.961Z,692.00
2018-06-14T05:02:12.951Z,696.00
2018-06-14T05:03:12.915Z,696.00
2018-06-14T05:04:12.967Z,696.00
2018-06-14T05:05:12.868Z,696.00
2018-06-14T05:06:12.883Z,696.00
2018-06-14T05:07:12.817Z,704.00
2018-06-14T05:08:12.894Z,704.00
2018-06-14T05:09:12.773Z,708.00
2018-06-14T05:10:12.804Z,708.00
2018-06-14T05:11:12.727Z,712.00
2018-06-14T05:12:12.715Z,716.00
2018-06-14T05:13:12.675Z,716.00
2018-06-14T05:14:12.732Z,720.00
2018-06-14T05:15:12.633Z,716.00
2018-06-14T05:16:12.641Z,708.00
2018-06-14T05:17:12.580Z,696.00
2018-06-14T05:18:12.657Z,700.00
2018-06-14T05:19:12.535Z,716.00
2018-06-14T05:20:12.570Z,724.00
2018-06-14T05:21:12.487Z,728.00
2018-06-14T05:22:12.479Z,740.00
2018-06-14T05:23:12.438Z,752.00
2018-06-14T05:24:12.493Z,760.00
2018-06-14T05:25:12.393Z,768.00
2018-06-14T05:26:12.409Z,780.00
2018-06-14T05:27:12.381Z,796.00
2018-06-14T05:28:12.422Z,808.00
2018-06-14T05:29:12.298Z,820.00
2018-06-14T05:30:12.332Z,840.00
2018-06-14T05:31:12.249Z,852.00
2018-06-14T05:32:12.247Z,864.00
2018-06-14T05:33:12.204Z,872.00
2018-06-14T05:34:12.257Z,868.00
2018-06-14T05:35:12.156Z,856.00
2018-06-14T05:36:12.169Z,856.00
2018-06-14T05:37:12.154Z,880.00
2018-06-14T05:38:12.241Z,888.00
2018-06-14T05:39:12.059Z,900.00
2018-06-14T05:40:12.096Z,900.00
2018-06-14T05:41:12.016Z,900.00
2018-06-14T05:42:12.019Z,892.00
2018-06-14T05:43:11.967Z,892.00
2018-06-14T05:44:12.022Z,892.00
2018-06-14T05:45:11.926Z,892.00
2018-06-14T05:46:11.933Z,888.00
2018-06-14T05:47:11.874Z,892.00
2018-06-14T05:48:11.947Z,904.00
2018-06-14T05:49:11.828Z,920.00
2018-06-14T05:50:11.858Z,936.00
2018-06-14T05:51:11.778Z,944.00
2018-06-14T05:52:11.769Z,960.00
2018-06-14T05:53:11.730Z,972.00
2018-06-14T05:54:11.783Z,980.00
2018-06-14T05:55:11.687Z,988.00
2018-06-14T05:56:11.704Z,996.00
2018-06-14T05:57:11.638Z,1004.00
2018-06-14T05:58:11.710Z,1012.00
2018-06-14T05:59:11.590Z,1016.00
2018-06-14T06:00:11.623Z,1024.00
2018-06-14T06:01:11.544Z,1040.00
2018-06-14T06:02:11.534Z,1052.00
2018-06-14T06:03:11.502Z,1072.00
2018-06-14T06:04:11.550Z,1080.00
2018-06-14T06:05:11.446Z,1092.00
2018-06-14T06:06:11.463Z,1100.00
2018-06-14T06:07:11.404Z,1112.00
2018-06-14T06:08:11.477Z,1120.00
2018-06-14T06:09:11.366Z,1128.00
2018-06-14T06:10:11.385Z,1128.00
2018-06-14T06:11:11.333Z,1132.00
2018-06-14T06:12:11.402Z,1144.00
2018-06-14T06:13:11.264Z,1148.00
2018-06-14T06:14:11.313Z,1152.00
2018-06-14T06:15:11.218Z,1160.00
2018-06-14T06:16:11.224Z,1164.00
2018-06-14T06:17:11.171Z,1168.00
2018-06-14T06:18:11.238Z,1172.00
2018-06-14T06:19:11.126Z,1180.00
2018-06-14T06:20:11.149Z,1192.00
2018-06-14T06:21:11.079Z,1208.00
2018-06-14T06:22:11.164Z,1228.00
2018-06-14T06:23:11.034Z,1236.00
2018-06-14T06:24:11.075Z,1240.00
2018-06-14T06:25:10.991Z,1240.00
2018-06-14T06:26:10.994Z,1224.00
2018-06-14T06:27:10.945Z,1224.00
2018-06-14T06:28:10.999Z,1216.00
2018-06-14T06:29:10.897Z,1216.00
2018-06-14T06:30:10.911Z,1224.00
2018-06-14T06:31:10.852Z,1232.00
2018-06-14T06:32:10.927Z,1240.00
2018-06-14T06:33:10.867Z,1244.00
2018-06-14T06:34:10.840Z,1244.00
2018-06-14T06:35:10.762Z,1240.00
2018-06-14T06:36:10.853Z,1232.00
2018-06-14T06:37:10.715Z,1228.00
2018-06-14T06:38:10.765Z,1228.00
2018-06-14T06:39:10.671Z,1232.00
2018-06-14T06:40:10.681Z,1244.00
2018-06-14T06:41:10.628Z,1244.00
2018-06-14T06:42:10.693Z,1248.00
2018-06-14T06:43:10.580Z,1256.00
2018-06-14T06:44:10.604Z,1264.00
2018-06-14T06:45:10.537Z,1264.00
2018-06-14T06:46:10.616Z,1264.00
2018-06-14T06:47:10.489Z,1260.00
2018-06-14T06:48:10.531Z,1256.00
2018-06-14T06:49:10.448Z,1260.00
2018-06-14T06:50:10.440Z,1256.00
2018-06-14T06:51:10.401Z,1256.00
2018-06-14T06:52:10.456Z,1256.00
2018-06-14T06:53:10.394Z,1260.00
2018-06-14T06:54:10.365Z,1252.00
2018-06-14T06:55:10.313Z,1252.00
2018-06-14T06:56:10.379Z,1252.00
2018-06-14T06:57:10.272Z,1260.00
2018-06-14T06:58:10.291Z,1260.00
2018-06-14T06:59:10.222Z,1264.00
2018-06-14T07:00:10.307Z,1264.00
2018-06-14T07:01:10.176Z,1276.00
2018-06-14T07:02:10.218Z,1280.00
2018-06-14T07:03:10.132Z,1284.00
2018-06-14T07:04:10.130Z,1288.00
2018-06-14T07:05:10.086Z,1284.00
2018-06-14T07:06:10.202Z,1292.00
2018-06-14T07:07:10.042Z,1296.00
2018-06-14T07:08:10.057Z,1292.00
2018-06-14T07:09:10.010Z,1288.00
2018-06-14T07:10:10.071Z,1280.00
2018-06-14T07:11:09.954Z,1272.00
2018-06-14T07:12:09.982Z,1268.00
2018-06-14T07:13:09.919Z,1240.00
2018-06-14T07:14:09.996Z,1232.00
2018-06-14T07:15:09.869Z,1236.00
2018-06-14T07:16:09.905Z,1264.00
2018-06-14T07:17:09.833Z,1272.00
2018-06-14T07:18:09.813Z,1272.00
2018-06-14T07:19:09.775Z,1280.00
2018-06-14T07:20:09.837Z,1292.00
2018-06-14T07:21:09.731Z,1300.00
2018-06-14T07:22:09.744Z,1304.00
2018-06-14T07:23:09.687Z,1308.00
2018-06-14T07:24:09.759Z,1320.00
2018-06-14T07:25:09.643Z,1344.00
2018-06-14T07:26:09.669Z,1348.00
2018-06-14T07:27:09.596Z,1356.00
2018-06-14T07:28:09.683Z,1360.00
2018-06-14T07:29:09.558Z,1364.00
2018-06-14T07:30:09.596Z,1368.00
2018-06-14T07:31:09.511Z,1372.00
2018-06-14T07:32:09.509Z,1376.00
2018-06-14T07:33:09.465Z,1380.00
2018-06-14T07:34:09.521Z,1388.00
2018-06-14T07:35:09.425Z,1396.00
2018-06-14T07:36:09.433Z,1408.00
2018-06-14T07:37:09.379Z,1412.00
2018-06-14T07:38:09.447Z,1412.00
2018-06-14T07:39:09.331Z,1424.00
2018-06-14T07:40:09.360Z,1432.00
2018-06-14T07:41:09.291Z,1432.00
2018-06-14T07:42:09.375Z,1436.00
2018-06-14T07:43:09.251Z,1432.00
2018-06-14T07:44:09.285Z,1436.00
2018-06-14T07:45:09.206Z,1444.00
2018-06-14T07:46:09.197Z,1448.00
2018-06-14T07:47:09.161Z,1456.00
2018-06-14T07:48:09.211Z,1460.00
2018-06-14T07:49:09.118Z,1472.00
2018-06-14T07:50:09.123Z,1484.00
2018-06-14T07:51:09.077Z,1496.00
2018-06-14T07:52:09.135Z,1500.00
2018-06-14T07:53:09.031Z,1520.00
2018-06-14T07:54:09.056Z,1532.00
2018-06-14T07:55:08.993Z,1548.00
2018-06-14T07:56:08.969Z,1552.00
2018-06-14T07:57:08.967Z,1564.00
2018-06-14T07:58:08.925Z,1576.00
2018-06-14T07:59:08.981Z,1584.00
2018-06-14T08:00:08.903Z,1596.00
2018-06-14T08:01:08.860Z,1612.00
2018-06-14T08:02:08.900Z,1636.00
2018-06-14T08:03:08.817Z,1648.00
2018-06-14T08:04:08.809Z,1652.00
2018-06-14T08:05:08.776Z,1664.00
2018-06-14T08:06:08.849Z,1684.00
2018-06-14T08:07:08.731Z,1676.00
2018-06-14T08:08:08.739Z,1720.00
2018-06-14T08:09:08.688Z,1768.00
2018-06-14T08:10:08.760Z,1816.00
2018-06-14T08:11:08.649Z,1868.00
2018-06-14T08:12:09.693Z,1952.00
2018-06-14T08:13:08.604Z,1840.00
2018-06-14T08:14:08.680Z,2064.00
2018-06-14T08:15:08.563Z,2100.00
2018-06-14T08:16:08.592Z,2144.00
2018-06-14T08:17:08.519Z,2152.00
2018-06-14T08:18:08.605Z,2160.00
2018-06-14T08:19:08.478Z,2052.00
2018-06-14T08:20:08.519Z,2028.00
2018-06-14T08:21:08.436Z,2052.00
2018-06-14T08:22:08.433Z,2072.00
2018-06-14T08:23:08.392Z,2012.00
2018-06-14T08:24:08.444Z,2088.00
2018-06-14T08:25:08.350Z,1908.00
2018-06-14T08:26:08.362Z,1832.00
2018-06-14T08:27:08.307Z,1792.00
2018-06-14T08:28:08.370Z,1576.00
2018-06-14T08:29:08.267Z,1520.00
2018-06-14T08:30:08.285Z,1508.00
2018-06-14T08:31:08.227Z,1484.00
2018-06-14T08:32:08.295Z,1568.00
2018-06-14T08:33:08.182Z,1776.00
2018-06-14T08:34:08.217Z,1612.00
2018-06-14T08:35:08.147Z,1820.00
2018-06-14T08:36:08.224Z,1824.00
2018-06-14T08:37:08.100Z,1888.00
2018-06-14T08:38:08.197Z,1944.00
2018-06-14T08:39:08.056Z,1924.00
2018-06-14T08:40:08.150Z,1900.00
2018-06-14T08:41:08.018Z,1924.00
2018-06-14T08:42:08.059Z,1864.00
2018-06-14T08:43:07.973Z,2092.00
2018-06-14T08:44:07.970Z,2208.00
2018-06-14T08:45:07.938Z,2236.00
2018-06-14T08:46:07.984Z,2244.00
2018-06-14T08:47:07.894Z,2252.00
2018-06-14T08:48:07.896Z,2292.00
2018-06-14T08:49:07.847Z,2268.00
2018-06-14T08:50:07.913Z,2264.00
2018-06-14T08:51:07.811Z,2340.00
2018-06-14T08:52:07.822Z,2468.00
2018-06-14T08:53:07.772Z,2536.00
2018-06-14T08:54:07.834Z,2532.00
2018-06-14T08:55:07.728Z,2284.00
2018-06-14T08:56:07.747Z,2148.00
2018-06-14T08:57:07.688Z,2104.00
2018-06-14T08:58:07.760Z,2148.00
2018-06-14T08:59:07.645Z,2160.00
2018-06-14T09:00:07.671Z,2248.00
2018-06-14T09:01:07.606Z,2212.00
2018-06-14T09:02:07.687Z,2516.00
2018-06-14T09:03:07.569Z,2448.00
2018-06-14T09:04:07.599Z,2416.00
2018-06-14T09:05:07.528Z,2380.00
2018-06-14T09:06:07.535Z,2272.00
2018-06-14T09:07:07.517Z,2092.00
2018-06-14T09:08:07.466Z,2408.00
2018-06-14T09:09:07.530Z,2528.00
2018-06-14T09:10:07.430Z,2480.00
2018-06-14T09:11:07.444Z,2368.00
2018-06-14T09:12:07.384Z,2300.00
2018-06-14T09:13:07.461Z,2268.00
2018-06-14T09:14:07.356Z,2256.00
2018-06-14T09:15:07.366Z,2224.00
2018-06-14T09:16:07.310Z,2248.00
2018-06-14T09:17:07.382Z,2288.00
2018-06-14T09:18:07.268Z,2296.00
2018-06-14T09:19:07.294Z,2360.00
2018-06-14T09:20:07.228Z,2160.00
2018-06-14T09:21:07.309Z,2108.00
2018-06-14T09:22:07.191Z,2092.00
2018-06-14T09:23:07.219Z,2160.00
2018-06-14T09:24:07.149Z,2240.00
2018-06-14T09:25:07.235Z,2344.00
2018-06-14T09:26:07.110Z,2504.00
2018-06-14T09:27:07.148Z,2660.00
2018-06-14T09:28:07.073Z,2732.00
2018-06-14T09:29:07.161Z,2508.00
2018-06-14T09:30:07.033Z,2404.00
2018-06-14T09:31:07.073Z,2816.00
2018-06-14T09:32:06.997Z,2872.00
2018-06-14T09:33:07.086Z,2880.00
2018-06-14T09:34:06.960Z,3024.00
2018-06-14T09:35:06.997Z,3140.00
2018-06-14T09:36:06.917Z,3232.00
2018-06-14T09:37:07.011Z,3292.00
2018-06-14T09:38:06.883Z,3328.00
2018-06-14T09:39:06.924Z,3244.00
2018-06-14T09:40:06.849Z,3188.00
2018-06-14T09:41:06.833Z,2976.00
2018-06-14T09:42:06.805Z,2732.00
2018-06-14T09:43:06.886Z,2204.00
2018-06-14T09:44:06.773Z,2768.00
2018-06-14T09:45:06.760Z,2348.00
2018-06-14T09:46:06.732Z,2040.00
2018-06-14T09:47:06.767Z,2112.00
2018-06-14T09:48:06.697Z,2368.00
2018-06-14T09:49:06.691Z,2100.00
2018-06-14T09:50:06.655Z,2168.00
2018-06-14T09:51:06.702Z,2308.00
2018-06-14T09:52:06.614Z,2904.00
2018-06-14T09:53:06.647Z,3200.00
2018-06-14T09:54:06.579Z,3468.00
2018-06-14T09:55:06.626Z,3388.00
2018-06-14T09:56:06.542Z,3380.00
2018-06-14T09:57:06.538Z,3256.00
2018-06-14T09:58:06.502Z,3420.00
2018-06-14T09:59:06.552Z,3352.00
2018-06-14T10:00:06.467Z,3460.00
2018-06-14T10:01:06.468Z,3372.00
2018-06-14T10:02:06.432Z,3028.00
2018-06-14T10:03:06.480Z,3412.00
2018-06-14T10:04:06.392Z,3748.00
2018-06-14T10:05:06.399Z,3816.00
2018-06-14T10:06:06.391Z,3880.00
2018-06-14T10:07:06.404Z,4268.00
2018-06-14T10:08:06.319Z,4228.00
2018-06-14T10:09:06.315Z,4416.00
2018-06-14T10:10:06.282Z,4332.00
2018-06-14T10:11:06.329Z,4784.00
2018-06-14T10:12:06.245Z,5164.00
2018-06-14T10:13:06.241Z,4900.00
2018-06-14T10:14:06.211Z,4716.00
2018-06-14T10:15:06.254Z,4636.00
2018-06-14T10:16:06.172Z,4800.00
2018-06-14T10:17:06.166Z,4668.00
2018-06-14T10:18:06.138Z,4580.00
2018-06-14T10:19:06.184Z,4584.00
2018-06-14T10:20:06.107Z,4072.00
2018-06-14T10:21:06.199Z,4120.00
2018-06-14T10:22:06.067Z,3960.00
2018-06-14T10:23:06.109Z,3976.00
2018-06-14T10:24:06.035Z,4012.00
2018-06-14T10:25:06.125Z,3944.00
2018-06-14T10:26:05.997Z,3952.00
2018-06-14T10:27:06.035Z,4000.00
2018-06-14T10:28:05.958Z,4072.00
2018-06-14T10:29:06.046Z,3956.00
2018-06-14T10:30:05.925Z,4148.00
2018-06-14T10:31:05.960Z,4500.00
2018-06-14T10:32:05.896Z,4252.00
2018-06-14T10:33:05.977Z,3920.00
2018-06-14T10:34:05.858Z,3776.00
2018-06-14T10:35:05.888Z,4396.00
2018-06-14T10:36:05.823Z,4296.00
2018-06-14T10:37:05.900Z,4160.00
2018-06-14T10:38:05.789Z,3668.00
2018-06-14T10:39:05.811Z,3672.00
2018-06-14T10:40:05.754Z,3688.00
2018-06-14T10:41:05.828Z,3652.00
2018-06-14T10:42:05.729Z,3532.00
2018-06-14T10:43:05.736Z,3344.00
2018-06-14T10:44:05.687Z,3224.00
2018-06-14T10:45:05.755Z,3396.00
2018-06-14T10:46:05.658Z,3976.00
2018-06-14T10:47:05.663Z,4716.00
2018-06-14T10:48:05.631Z,4928.00
2018-06-14T10:49:05.679Z,4340.00
2018-06-14T10:50:05.584Z,3972.00
2018-06-14T10:51:05.588Z,4064.00
2018-06-14T10:52:05.550Z,4384.00
2018-06-14T10:53:05.603Z,4324.00
2018-06-14T10:54:05.517Z,4392.00
2018-06-14T10:55:05.526Z,4176.00
2018-06-14T10:56:05.489Z,4120.00
2018-06-14T10:57:05.536Z,4136.00
2018-06-14T10:58:05.460Z,4128.00
2018-06-14T10:59:05.543Z,4084.00
2018-06-14T11:00:05.421Z,4000.00
2018-06-14T11:01:05.456Z,3888.00
2018-06-14T11:02:05.391Z,3716.00
2018-06-14T11:03:05.475Z,3516.00
2018-06-14T11:04:05.352Z,3332.00
2018-06-14T11:05:05.391Z,3132.00
2018-06-14T11:06:05.315Z,2956.00
2018-06-14T11:07:05.392Z,2804.00
2018-06-14T11:08:05.282Z,2768.00
2018-06-14T11:09:05.322Z,2804.00
2018-06-14T11:10:05.247Z,2824.00
2018-06-14T11:11:05.320Z,2860.00
2018-06-14T11:12:05.219Z,3016.00
2018-06-14T11:13:05.232Z,3188.00
2018-06-14T11:14:05.181Z,3320.00
2018-06-14T11:15:05.247Z,3480.00
2018-06-14T11:16:05.144Z,3628.00
2018-06-14T11:17:05.128Z,3664.00
2018-06-14T11:18:05.258Z,3728.00
2018-06-14T11:19:05.099Z,3956.00
2018-06-14T11:20:05.180Z,4208.00
2018-06-14T11:21:05.060Z,4092.00
2018-06-14T11:22:05.044Z,4116.00
2018-06-14T11:23:05.026Z,4116.00
2018-06-14T11:24:05.218Z,4084.00
2018-06-14T11:25:04.991Z,4000.00
2018-06-14T11:26:05.121Z,3932.00
2018-06-14T11:27:04.958Z,3864.00
2018-06-14T11:28:05.133Z,3872.00
2018-06-14T11:29:04.925Z,4100.00
2018-06-14T11:30:05.134Z,3976.00
2018-06-14T11:31:04.888Z,4140.00
2018-06-14T11:32:05.065Z,4056.00
2018-06-14T11:33:04.856Z,4288.00
2018-06-14T11:34:04.976Z,4992.00
2018-06-14T11:35:04.826Z,5256.00
2018-06-14T11:36:04.989Z,5192.00
2018-06-14T11:37:04.788Z,5048.00
2018-06-14T11:38:04.897Z,4716.00
2018-06-14T11:39:04.753Z,4796.00
2018-06-14T11:40:04.911Z,4816.00
2018-06-14T11:41:04.722Z,5064.00
2018-06-14T11:42:04.824Z,5116.00
2018-06-14T11:43:04.679Z,4748.00
2018-06-14T11:44:04.842Z,4400.00
2018-06-14T11:45:04.652Z,4512.00
2018-06-14T11:46:04.750Z,4544.00
2018-06-14T11:47:04.622Z,4872.00
2018-06-14T11:48:04.662Z,5152.00
2018-06-14T11:49:04.590Z,4996.00
2018-06-14T11:50:04.676Z,4768.00
2018-06-14T11:51:04.556Z,4804.00
2018-06-14T11:52:04.588Z,5072.00
2018-06-14T11:53:04.522Z,4736.00
2018-06-14T11:54:04.612Z,5732.00
2018-06-14T11:55:04.490Z,5544.00
2018-06-14T11:56:04.512Z,5900.00
2018-06-14T11:57:04.460Z,6208.00
2018-06-14T11:58:04.528Z,6364.00
2018-06-14T11:59:04.426Z,6336.00
2018-06-14T12:00:04.542Z,6228.00
2018-06-14T12:01:04.392Z,6092.00
2018-06-14T12:02:04.454Z,6100.00
2018-06-14T12:05:15.538Z,6072.00
2018-06-14T12:05:36.117Z,5372.00
2018-06-14T12:07:29.090Z,5488.00
2018-06-14T12:08:29.025Z,5128.00
2018-06-14T12:10:21.946Z,4392.00
2018-06-14T12:11:21.860Z,4088.00
2018-06-14T12:13:14.902Z,3688.00
2018-06-14T12:14:14.816Z,3516.00
2018-06-14T12:16:07.855Z,3332.00
2018-06-14T12:17:07.769Z,3268.00
2018-06-14T12:19:00.812Z,3268.00
2018-06-14T12:20:00.724Z,3308.00
2018-06-14T12:21:53.666Z,3496.00
2018-06-14T12:22:53.581Z,3536.00
2018-06-14T12:24:46.665Z,3484.00
2018-06-14T12:25:46.532Z,3472.00
2018-06-14T12:27:39.476Z,3520.00
2018-06-14T12:28:39.395Z,3540.00
2018-06-14T12:30:32.434Z,3608.00
2018-06-14T12:31:32.339Z,3636.00
2018-06-14T12:33:25.387Z,3656.00
2018-06-14T12:34:25.311Z,3672.00
2018-06-14T12:36:18.338Z,3736.00
2018-06-14T12:37:18.253Z,3824.00
2018-06-14T12:39:11.294Z,3704.00
2018-06-14T12:40:11.112Z,3540.00